Time;durP1;ratioP1;P1;durP2;ratioP2;P2;SDS_P1;SDS_P2;PMS_P1;PMS_P2;Temp;Humidity;BMP_temperature;BMP_pressure;BME280_temperature;BME280_humidity;BME280_pressure;Samples;Min_cycle;Max_cycle;Signal;HPM_P1;HPM_P2
2023/06/05 00:01:11;;;;;;;0.93;0.70;;;;;;;17.45;75.08;101588.78;5015553;28;20033;-63
2023/06/05 00:03:56;;;;;;;1.75;0.55;;;;;;;17.28;75.07;101586.69;5014501;28;20103;-63
2023/06/05 00:06:22;;;;;;;1.83;1.00;;;;;;;17.21;75.28;101588.59;4947178;29;20107;-62
2023/06/05 00:08:48;;;;;;;0.77;0.65;;;;;;;17.21;75.44;101583.13;4951013;29;20055;-62
2023/06/05 00:11:13;;;;;;;0.90;0.75;;;;;;;17.25;74.93;101584.72;4952232;29;20070;-62
2023/06/05 00:13:39;;;;;;;1.10;0.63;;;;;;;17.17;74.99;101593.97;4951587;29;20063;-65
2023/06/05 00:16:05;;;;;;;1.05;0.95;;;;;;;17.17;75.22;101582.31;4948603;28;20047;-64
2023/06/05 00:18:30;;;;;;;1.17;0.77;;;;;;;16.93;76.37;101589.09;4950657;28;20465;-64
2023/06/05 00:20:56;;;;;;;1.30;0.73;;;;;;;16.92;76.70;101587.53;4951032;29;20062;-62
2023/06/05 00:23:21;;;;;;;3.03;0.75;;;;;;;16.95;76.48;101592.22;4951260;29;20055;-65
2023/06/05 00:25:47;;;;;;;1.15;0.52;;;;;;;17.00;77.12;101589.16;4950243;29;20123;-65
2023/06/05 00:28:12;;;;;;;1.23;1.10;;;;;;;17.04;77.08;101585.31;4949005;28;20111;-64
2023/06/05 00:30:39;;;;;;;0.88;0.68;;;;;;;17.00;76.47;101589.16;4935570;29;20038;-65
2023/06/05 00:33:04;;;;;;;1.35;1.25;;;;;;;16.94;77.01;101583.28;4951498;29;20043;-62
2023/06/05 00:35:30;;;;;;;3.80;0.85;;;;;;;16.88;77.22;101587.50;4934482;29;20561;-64
2023/06/05 00:37:56;;;;;;;1.00;0.90;;;;;;;16.91;76.85;101586.75;4948972;28;20031;-65
2023/06/05 00:40:21;;;;;;;2.03;0.80;;;;;;;16.97;76.87;101596.16;4933164;29;20040;-65
2023/06/05 00:42:47;;;;;;;2.33;0.80;;;;;;;16.95;77.06;101595.75;4966242;28;20060;-64
2023/06/05 00:45:12;;;;;;;0.65;0.60;;;;;;;16.81;76.93;101594.81;5026231;28;20037;-65
2023/06/05 00:47:58;;;;;;;0.90;0.80;;;;;;;16.85;76.90;101592.91;5021831;28;20033;-63
2023/06/05 00:50:24;;;;;;;2.13;0.90;;;;;;;16.82;76.82;101593.66;4985745;28;20050;-64
2023/06/05 00:52:51;;;;;;;3.40;1.15;;;;;;;16.86;76.77;101595.25;4973789;28;20044;-65
2023/06/05 00:55:16;;;;;;;0.60;0.60;;;;;;;16.91;76.60;101586.75;4954008;28;20057;-65
2023/06/05 00:57:44;;;;;;;2.85;0.95;;;;;;;16.88;76.64;101592.16;4965419;28;20030;-64
2023/06/05 01:00:12;;;;;;;1.25;0.93;;;;;;;16.81;76.93;101592.88;4971066;28;20034;-62
2023/06/05 01:02:39;;;;;;;1.45;0.77;;;;;;;16.81;76.49;101592.09;4987132;28;20112;-64
2023/06/05 01:05:06;;;;;;;1.10;0.68;;;;;;;16.67;76.69;101589.22;4982503;28;20157;-65
2023/06/05 01:07:55;;;;;;;1.27;0.95;;;;;;;16.58;77.49;101580.56;4964552;28;20081;-64
2023/06/05 01:10:23;;;;;;;1.52;0.85;;;;;;;16.48;77.42;101583.91;4928301;29;20709;-65
2023/06/05 01:13:03;;;;;;;1.20;0.80;;;;;;;16.34;77.46;101587.25;4914770;29;20106;-65
2023/06/05 01:15:29;;;;;;;9.25;1.05;;;;;;;16.34;77.95;101581.06;4929055;29;20075;-64
2023/06/05 01:18:00;;;;;;;1.80;0.80;;;;;;;16.27;78.24;101579.03;4928651;29;20039;-65
2023/06/05 01:20:36;;;;;;;0.52;0.50;;;;;;;16.27;77.89;101570.88;4915585;29;20046;-65
2023/06/05 01:23:03;;;;;;;1.20;1.10;;;;;;;16.27;77.21;101579.03;4930868;29;20031;-61
2023/06/05 01:25:29;;;;;;;1.00;0.90;;;;;;;16.26;77.30;101572.00;4929991;29;20024;-64
2023/06/05 01:28:15;;;;;;;0.98;0.88;;;;;;;16.24;77.47;101568.88;4967216;28;20117;-65
2023/06/05 01:31:00;;;;;;;1.48;0.93;;;;;;;16.19;76.88;101569.22;4963846;28;20034;-65
2023/06/05 01:33:44;;;;;;;1.73;0.80;;;;;;;16.12;77.58;101569.91;4980364;28;20066;-65
2023/06/05 01:36:11;;;;;;;2.45;1.35;;;;;;;16.24;76.79;101569.66;4980413;28;20366;-65
2023/06/05 01:38:40;;;;;;;1.95;1.10;;;;;;;16.17;76.54;101566.88;4960704;28;20062;-64
2023/06/05 01:41:06;;;;;;;1.20;0.98;;;;;;;15.88;77.58;101562.22;4966740;28;20481;-65
2023/06/05 01:43:33;;;;;;;1.65;0.85;;;;;;;15.68;78.56;101562.72;4956564;28;20031;-65
2023/06/05 01:45:59;;;;;;;5.88;0.70;;;;;;;15.87;78.16;101560.66;4976575;28;20086;-62
2023/06/05 01:48:29;;;;;;;1.30;0.77;;;;;;;15.87;77.74;101562.59;5019806;28;20056;-64
2023/06/05 01:50:59;;;;;;;1.58;0.80;;;;;;;15.83;77.23;101565.25;5017664;28;20025;-63
2023/06/05 01:53:25;;;;;;;2.08;0.90;;;;;;;15.92;77.20;101556.84;5024856;28;20052;-62
2023/06/05 01:55:57;;;;;;;1.23;0.70;;;;;;;15.82;77.13;101557.47;5021277;28;20036;-62
2023/06/05 01:58:24;;;;;;;1.63;1.17;;;;;;;15.77;77.42;101560.50;5011893;28;20452;-64
2023/06/05 02:00:50;;;;;;;1.15;0.73;;;;;;;15.74;77.75;101559.31;5021873;28;20461;-64
2023/06/05 02:03:17;;;;;;;1.27;0.98;;;;;;;15.74;77.80;101553.09;5025206;28;20033;-64
2023/06/05 02:05:42;;;;;;;1.92;1.17;;;;;;;15.72;77.83;101553.47;5020531;28;20429;-63
2023/06/05 02:08:09;;;;;;;0.90;0.63;;;;;;;15.76;77.50;101559.72;5015139;28;20111;-64
2023/06/05 02:10:57;;;;;;;2.80;1.02;;;;;;;15.78;77.53;101548.47;5029384;28;20033;-65
2023/06/05 02:13:24;;;;;;;1.40;1.15;;;;;;;15.75;77.47;101555.47;4965969;28;20122;-64
2023/06/05 02:15:55;;;;;;;1.63;0.82;;;;;;;15.72;77.58;101548.03;4944860;28;20672;-64
2023/06/05 02:18:24;;;;;;;1.55;0.80;;;;;;;15.69;77.03;101540.63;4959778;28;20083;-65
2023/06/05 02:20:53;;;;;;;1.35;0.88;;;;;;;15.69;77.21;101543.34;4949205;28;20517;-64
2023/06/05 02:23:19;;;;;;;0.73;0.52;;;;;;;15.60;77.42;101547.47;4939017;29;20143;-64
2023/06/05 02:25:45;;;;;;;1.08;0.73;;;;;;;15.50;77.17;101546.16;4960424;28;20476;-64
2023/06/05 02:28:10;;;;;;;1.88;1.25;;;;;;;15.17;78.05;101540.59;4964648;28;20510;-63
2023/06/05 02:30:37;;;;;;;0.93;0.60;;;;;;;15.17;78.93;101537.88;4969465;28;20153;-61
2023/06/05 02:33:03;;;;;;;0.65;0.47;;;;;;;15.25;78.99;101537.59;4966851;28;20045;-63
2023/06/05 02:35:29;;;;;;;2.25;1.08;;;;;;;15.27;78.45;101532.59;4950491;28;20041;-63
2023/06/05 02:37:56;;;;;;;0.75;0.70;;;;;;;15.21;78.81;101523.19;4968523;28;20061;-63
2023/06/05 02:40:22;;;;;;;2.08;0.90;;;;;;;15.33;78.34;101524.91;4953218;28;20031;-64
2023/06/05 02:42:47;;;;;;;1.02;0.82;;;;;;;15.28;78.48;101533.38;4968765;28;20046;-63
2023/06/05 02:45:13;;;;;;;0.77;0.70;;;;;;;15.33;78.31;101522.19;4950167;28;20158;-64
2023/06/05 02:47:39;;;;;;;2.35;0.98;;;;;;;15.16;78.39;101536.28;4960339;28;20097;-63
2023/06/05 02:50:07;;;;;;;4.35;0.60;;;;;;;15.13;79.25;101531.59;4987530;28;20045;-62
2023/06/05 02:52:39;;;;;;;1.48;1.00;;;;;;;14.84;79.92;101524.94;5017750;28;20722;-64
2023/06/05 02:55:12;;;;;;;0.88;0.55;;;;;;;14.94;80.23;101532.44;5036779;22;20033;-64
2023/06/05 02:57:42;;;;;;;1.05;0.95;;;;;;;15.05;79.96;101535.34;5022820;28;20381;-67
2023/06/05 03:00:14;;;;;;;1.23;0.63;;;;;;;15.08;80.24;101534.59;5012278;28;20482;-67
2023/06/05 03:02:40;;;;;;;3.17;1.23;;;;;;;15.17;79.60;101529.72;5004686;28;20029;-68
2023/06/05 03:05:07;;;;;;;1.33;0.88;;;;;;;15.14;80.10;101525.81;5023973;28;20030;-67
2023/06/05 03:07:33;;;;;;;2.25;1.10;;;;;;;15.24;79.53;101533.34;5026325;28;20036;-67
2023/06/05 03:10:02;;;;;;;2.80;0.90;;;;;;;15.33;78.81;101528.44;5031232;28;20040;-67
2023/06/05 03:12:29;;;;;;;0.93;0.70;;;;;;;15.24;78.85;101527.13;5028628;28;20630;-68
2023/06/05 03:14:55;;;;;;;2.15;0.95;;;;;;;15.27;78.52;101526.41;5035733;28;20063;-65
2023/06/05 03:17:20;;;;;;;1.98;0.75;;;;;;;15.22;78.46;101523.97;5026118;28;20030;-68
2023/06/05 03:19:46;;;;;;;4.97;1.25;;;;;;;15.26;78.82;101524.81;5023800;28;20485;-68
2023/06/05 03:22:12;;;;;;;2.92;0.93;;;;;;;15.32;78.45;101518.72;5012426;28;20033;-68
2023/06/05 03:24:39;;;;;;;1.55;0.80;;;;;;;15.39;77.49;101518.03;5021624;28;20044;-68
2023/06/05 03:27:06;;;;;;;1.20;0.82;;;;;;;15.37;77.22;101528.47;5019792;28;20049;-68
2023/06/05 03:29:32;;;;;;;2.38;1.27;;;;;;;15.14;78.28;101523.09;5022105;28;20038;-67
2023/06/05 03:31:57;;;;;;;2.00;0.70;;;;;;;15.07;79.74;101522.19;5030257;28;20033;-67
2023/06/05 03:34:25;;;;;;;1.38;0.77;;;;;;;15.01;79.39;101521.72;5031043;28;20493;-66
2023/06/05 03:36:53;;;;;;;1.83;0.65;;;;;;;14.99;79.60;101521.31;5032713;28;20025;-68
2023/06/05 03:39:18;;;;;;;2.47;1.02;;;;;;;15.01;80.10;101521.72;5042661;28;20128;-67
2023/06/05 03:41:45;;;;;;;3.92;0.82;;;;;;;14.95;79.94;101522.38;5025581;28;20356;-66
2023/06/05 03:44:10;;;;;;;2.20;1.38;;;;;;;14.94;79.92;101510.75;5027608;28;20059;-67
2023/06/05 03:46:37;;;;;;;1.55;0.82;;;;;;;14.97;80.44;101517.38;5032340;28;20025;-67
2023/06/05 03:49:08;;;;;;;2.25;1.33;;;;;;;14.93;80.21;101516.53;5031661;28;20453;-65
2023/06/05 03:51:35;;;;;;;1.30;0.93;;;;;;;14.91;80.61;101518.81;5036903;28;20029;-67
2023/06/05 03:54:03;;;;;;;1.92;1.10;;;;;;;14.97;80.42;101515.47;5040251;28;20032;-68
2023/06/05 03:56:33;;;;;;;1.33;0.93;;;;;;;14.95;80.91;101512.31;5033502;28;20033;-68
2023/06/05 03:59:08;;;;;;;1.02;0.60;;;;;;;14.98;80.33;101517.00;5031823;28;20567;-69
2023/06/05 04:01:37;;;;;;;2.80;1.30;;;;;;;15.10;80.81;101521.47;5012939;28;20036;-69
2023/06/05 04:04:05;;;;;;;0.88;0.70;;;;;;;15.08;81.05;101519.13;5027425;28;20105;-67
2023/06/05 04:06:32;;;;;;;2.67;0.90;;;;;;;15.12;80.46;101516.44;5015368;28;20042;-69
2023/06/05 04:08:58;;;;;;;3.15;0.90;;;;;;;14.97;80.87;101520.09;5012716;28;20038;-68
2023/06/05 04:11:28;;;;;;;2.35;1.15;;;;;;;15.06;81.06;101526.06;5048415;28;20017;-67
2023/06/05 04:13:59;;;;;;;;;;;;;;;15.10;81.43;101530.38;5026575;28;20021;-66
2023/06/05 04:16:25;;;;;;;1.60;1.00;;;;;;;15.19;81.20;101525.47;5028542;28;19917;-68
2023/06/05 04:18:50;;;;;;;2.38;0.93;;;;;;;15.30;80.95;101525.66;5034978;28;20051;-68
2023/06/05 04:21:16;;;;;;;2.10;1.25;;;;;;;15.28;80.65;101527.97;5032798;28;20108;-68
2023/06/05 04:23:41;;;;;;;1.02;0.90;;;;;;;15.32;80.28;101534.22;5034330;28;20056;-67
2023/06/05 04:26:07;;;;;;;1.20;0.80;;;;;;;15.38;80.60;101528.13;5031123;28;20040;-67
2023/06/05 04:28:34;;;;;;;2.15;1.02;;;;;;;15.41;79.83;101536.69;5036959;28;20378;-67
2023/06/05 04:30:59;;;;;;;1.73;1.10;;;;;;;15.44;80.02;101542.19;5024056;28;20036;-68
2023/06/05 04:33:25;;;;;;;2.58;1.08;;;;;;;15.43;80.25;101543.34;5022675;28;20038;-68
2023/06/05 04:35:50;;;;;;;3.55;1.00;;;;;;;15.46;80.55;101534.47;5004443;28;20033;-67
2023/06/05 04:38:20;;;;;;;1.63;0.98;;;;;;;15.47;80.90;101535.25;5016466;28;20029;-67
2023/06/05 04:40:50;;;;;;;2.20;1.17;;;;;;;15.48;80.49;101525.97;5022792;28;20029;-67
2023/06/05 04:43:16;;;;;;;1.45;0.90;;;;;;;15.58;80.84;101531.53;5024304;28;20457;-66
2023/06/05 04:45:42;;;;;;;3.15;1.20;;;;;;;15.45;81.01;101527.47;5023523;28;20025;-66
2023/06/05 04:48:09;;;;;;;1.75;0.98;;;;;;;15.51;81.05;101519.78;5027994;28;20034;-68
2023/06/05 04:50:36;;;;;;;2.90;1.15;;;;;;;15.50;81.38;101532.59;5026657;28;20087;-68
2023/06/05 04:53:08;;;;;;;2.17;1.27;;;;;;;15.59;81.35;101527.69;5029629;28;20029;-67
2023/06/05 04:55:35;;;;;;;1.17;0.80;;;;;;;15.62;81.11;101529.63;5032334;28;20458;-68
2023/06/05 04:58:00;;;;;;;1.70;0.80;;;;;;;15.69;81.28;101529.75;5013506;28;20113;-65
2023/06/05 05:00:28;;;;;;;3.80;1.00;;;;;;;15.79;81.22;101531.06;5013883;28;20995;-63
2023/06/05 05:02:54;;;;;;;3.20;1.50;;;;;;;15.85;81.30;101538.50;5016459;28;20045;-65
2023/06/05 05:05:20;;;;;;;2.00;1.25;;;;;;;16.02;80.86;101540.69;5007646;28;20116;-65
2023/06/05 05:07:47;;;;;;;1.90;0.85;;;;;;;16.13;80.79;101535.34;5018950;28;20036;-65
2023/06/05 05:10:14;;;;;;;1.80;1.08;;;;;;;16.31;80.66;101521.97;5010837;28;20044;-67
2023/06/05 05:12:40;;;;;;;1.90;1.05;;;;;;;16.68;80.78;101523.56;5030926;28;20034;-65
2023/06/05 05:15:06;;;;;;;2.65;1.52;;;;;;;17.22;79.12;101524.78;5022225;28;20044;-65
2023/06/05 05:17:32;;;;;;;2.25;1.58;;;;;;;17.70;77.10;101529.81;5012666;28;20037;-67
2023/06/05 05:19:58;;;;;;;2.63;1.40;;;;;;;18.13;75.21;101535.44;5037857;28;20155;-65
2023/06/05 05:22:26;;;;;;;2.08;1.45;;;;;;;18.47;72.89;101523.88;5030532;28;20025;-65
2023/06/05 05:24:51;;;;;;;2.85;1.40;;;;;;;18.77;71.34;101531.75;5028969;28;20594;-65
2023/06/05 05:27:17;;;;;;;6.95;1.88;;;;;;;19.07;70.24;101534.88;5023537;28;20095;-66
2023/06/05 05:29:43;;;;;;;5.03;1.40;;;;;;;19.43;70.07;101538.38;5017145;28;20033;-64
2023/06/05 05:32:10;;;;;;;2.00;1.30;;;;;;;19.49;68.46;101543.03;4997703;28;20041;-65
2023/06/05 05:34:35;;;;;;;3.22;1.15;;;;;;;19.64;68.59;101543.81;5014261;28;20108;-65
2023/06/05 05:37:01;;;;;;;5.18;1.27;;;;;;;19.69;67.33;101548.88;5023273;28;20172;-68
2023/06/05 05:39:26;;;;;;;1.85;1.10;;;;;;;19.85;67.09;101545.69;4976989;28;20045;-68
2023/06/05 05:41:52;;;;;;;2.45;1.58;;;;;;;19.94;66.93;101541.38;5027433;28;20037;-67
2023/06/05 05:44:19;;;;;;;2.90;1.92;;;;;;;20.15;66.17;101546.00;5038870;28;20511;-68
2023/06/05 05:46:46;;;;;;;5.05;1.17;;;;;;;20.37;65.74;101547.47;5014334;28;20087;-68
2023/06/05 05:49:11;;;;;;;2.13;1.00;;;;;;;;;;5024248;28;20116;-69
2023/06/05 05:51:37;;;;;;;1.30;0.85;;;;;;;20.64;65.85;101551.22;5022236;28;20064;-68
2023/06/05 05:54:03;;;;;;;2.35;1.40;;;;;;;20.85;65.01;101553.81;5030320;28;20049;-68
2023/06/05 05:56:28;;;;;;;1.77;1.30;;;;;;;20.79;64.76;101543.69;5030350;28;20033;-70
2023/06/05 05:58:54;;;;;;;3.58;1.02;;;;;;;20.82;64.27;101551.88;5028060;28;20049;-68
2023/06/05 06:01:21;;;;;;;4.03;1.10;;;;;;;20.91;64.08;101563.16;5021511;28;20210;-68
2023/06/05 06:03:47;;;;;;;3.35;1.05;;;;;;;20.95;64.04;101552.16;5025724;28;20018;-67
2023/06/05 06:06:13;;;;;;;1.27;1.02;;;;;;;20.96;63.19;101557.25;5028247;28;20558;-67
2023/06/05 06:08:38;;;;;;;1.58;1.05;;;;;;;21.05;63.30;101556.81;5036675;28;20641;-68
2023/06/05 06:11:06;;;;;;;1.17;0.70;;;;;;;21.19;63.42;101562.97;5039761;28;20036;-68
2023/06/05 06:13:33;;;;;;;2.28;0.85;;;;;;;21.31;62.77;101564.44;5030816;28;20033;-68
2023/06/05 06:15:59;;;;;;;2.28;0.85;;;;;;;21.34;62.42;101564.41;5022674;28;20124;-69
2023/06/05 06:18:25;;;;;;;3.22;1.02;;;;;;;21.46;62.97;101563.91;5030962;28;20204;-68
2023/06/05 06:20:51;;;;;;;2.15;0.73;;;;;;;21.60;62.76;101562.19;5028792;28;20034;-69
2023/06/05 06:23:16;;;;;;;1.40;0.82;;;;;;;21.62;62.89;101562.56;5031641;28;20041;-68
2023/06/05 06:25:42;;;;;;;1.50;0.70;;;;;;;21.66;62.24;101557.81;5030463;28;20437;-68
2023/06/05 06:28:07;;;;;;;2.08;0.90;;;;;;;21.68;61.55;101563.69;5014663;28;20536;-68
2023/06/05 06:30:33;;;;;;;1.45;0.98;;;;;;;21.80;60.94;101557.66;5031202;28;20042;-69
2023/06/05 06:32:58;;;;;;;2.60;0.77;;;;;;;21.94;60.94;101560.28;5031431;28;20028;-68
2023/06/05 06:35:25;;;;;;;1.08;0.75;;;;;;;21.95;60.83;101553.63;5015547;28;20026;-68
2023/06/05 06:37:54;;;;;;;0.77;0.70;;;;;;;21.97;60.20;101565.72;5043135;28;20095;-67
2023/06/05 06:40:20;;;;;;;0.95;0.80;;;;;;;21.99;60.75;101559.84;5031328;28;20060;-67
2023/06/05 06:42:45;;;;;;;4.05;1.38;;;;;;;22.05;61.12;101560.91;5028416;28;20061;-68
2023/06/05 06:45:20;;;;;;;2.08;0.80;;;;;;;22.08;60.51;101558.16;5027972;28;20437;-67
2023/06/05 06:47:45;;;;;;;0.93;0.60;;;;;;;22.25;61.35;101567.34;5029940;28;20061;-67
2023/06/05 06:50:13;;;;;;;1.45;0.82;;;;;;;22.34;60.16;101567.59;5030461;28;20104;-68
2023/06/05 06:52:39;;;;;;;0.73;0.63;;;;;;;22.43;60.64;101567.91;5040473;28;20044;-67
2023/06/05 06:55:05;;;;;;;1.60;0.88;;;;;;;22.51;59.16;101563.88;5030403;28;20125;-68
2023/06/05 06:57:31;;;;;;;1.27;1.00;;;;;;;22.45;59.48;101562.78;5030295;28;20132;-66
2023/06/05 06:59:57;;;;;;;1.35;0.73;;;;;;;22.47;59.01;101563.13;5012702;28;20109;-68
2023/06/05 07:02:25;;;;;;;2.45;0.70;;;;;;;22.61;58.65;101564.94;5031081;28;20033;-66
2023/06/05 07:04:53;;;;;;;1.75;0.63;;;;;;;22.68;57.76;101562.84;5031247;28;20021;-66
2023/06/05 07:07:21;;;;;;;1.85;0.70;;;;;;;22.88;57.58;101565.69;5029644;28;20116;-65
2023/06/05 07:09:49;;;;;;;1.10;0.63;;;;;;;22.94;56.92;101567.53;5025360;28;20047;-66
2023/06/05 07:12:16;;;;;;;2.03;0.77;;;;;;;23.06;57.98;101566.19;5033676;28;20033;-66
2023/06/05 07:14:41;;;;;;;0.80;0.63;;;;;;;23.20;58.75;101564.00;5030725;28;20034;-67
2023/06/05 07:17:07;;;;;;;1.48;0.95;;;;;;;23.25;58.86;101566.25;5029662;28;20037;-65
2023/06/05 07:19:36;;;;;;;1.17;0.70;;;;;;;23.40;57.80;101568.78;5022957;28;20576;-66
2023/06/05 07:22:04;;;;;;;1.33;0.57;;;;;;;23.55;55.81;101570.88;5039246;28;20029;-65
2023/06/05 07:24:30;;;;;;;1.67;0.80;;;;;;;23.55;53.36;101565.38;5020618;28;20033;-65
2023/06/05 07:27:00;;;;;;;1.15;0.75;;;;;;;23.59;54.15;101577.09;5029302;28;20068;-67
2023/06/05 07:29:26;;;;;;;1.23;0.70;;;;;;;23.66;53.52;101570.66;5024322;28;20125;-68
2023/06/05 07:31:53;;;;;;;1.42;0.73;;;;;;;23.77;54.38;101568.50;5039853;28;20048;-66
2023/06/05 07:34:20;;;;;;;0.50;0.40;;;;;;;23.82;52.42;101573.50;5030349;28;20512;-65
2023/06/05 07:36:47;;;;;;;0.70;0.43;;;;;;;23.89;52.63;101570.59;5021448;28;20041;-65
2023/06/05 07:39:13;;;;;;;1.35;0.60;;;;;;;23.96;50.94;101565.72;5029933;28;20409;-65
2023/06/05 07:41:39;;;;;;;0.68;0.55;;;;;;;24.04;51.57;101569.16;5030632;28;20037;-66
2023/06/05 07:44:08;;;;;;;0.75;0.55;;;;;;;24.13;51.36;101569.38;5030272;28;20109;-65
2023/06/05 07:46:34;;;;;;;1.00;0.70;;;;;;;24.40;52.04;101569.97;5026992;28;20034;-66
2023/06/05 07:49:02;;;;;;;0.65;0.50;;;;;;;24.47;51.38;101572.56;5025229;28;20035;-65
2023/06/05 07:51:28;;;;;;;1.17;0.55;;;;;;;24.58;50.97;101570.38;5029612;28;20112;-66
2023/06/05 07:53:53;;;;;;;1.08;0.60;;;;;;;24.72;50.79;101569.25;5028402;28;20124;-65
2023/06/05 07:56:19;;;;;;;1.17;0.60;;;;;;;24.86;49.66;101574.44;5038380;28;20060;-69
2023/06/05 07:58:44;;;;;;;1.15;0.60;;;;;;;24.88;49.42;101574.81;5028563;28;20021;-66
2023/06/05 08:01:12;;;;;;;1.05;0.40;;;;;;;24.72;49.88;101574.78;5031033;28;20028;-66
2023/06/05 08:03:37;;;;;;;1.02;0.55;;;;;;;24.81;49.09;101573.00;5039884;28;20104;-66
2023/06/05 08:06:03;;;;;;;1.90;0.68;;;;;;;24.94;48.83;101573.88;5030391;28;20537;-67
2023/06/05 08:08:29;;;;;;;1.38;0.52;;;;;;;24.97;47.60;101567.47;5029543;28;20051;-65
2023/06/05 08:10:55;;;;;;;0.70;0.40;;;;;;;25.14;47.64;101571.03;5027566;28;20025;-67
2023/06/05 08:13:21;;;;;;;1.27;0.50;;;;;;;25.30;45.28;101573.00;5022217;28;20048;-65
2023/06/05 08:15:46;;;;;;;0.68;0.57;;;;;;;25.05;46.10;101568.84;5028229;28;20029;-65
2023/06/05 08:18:12;;;;;;;0.52;0.38;;;;;;;25.15;47.61;101566.25;5026385;28;20037;-70
2023/06/05 08:20:37;;;;;;;0.57;0.47;;;;;;;25.26;47.14;101566.78;5039604;28;20033;-66
2023/06/05 08:23:05;;;;;;;0.75;0.45;;;;;;;25.36;47.31;101563.75;5036557;28;20033;-65
2023/06/05 08:25:30;;;;;;;0.60;0.55;;;;;;;25.66;46.43;101563.38;5033780;28;20036;-66
2023/06/05 08:27:56;;;;;;;0.50;0.47;;;;;;;25.54;47.35;101568.81;5030323;28;20033;-66
2023/06/05 08:30:21;;;;;;;0.68;0.50;;;;;;;25.72;47.19;101569.13;5034108;28;20112;-68
2023/06/05 08:32:47;;;;;;;0.45;0.43;;;;;;;25.97;46.61;101562.91;5033413;28;20659;-68
2023/06/05 08:35:12;;;;;;;0.50;0.28;;;;;;;26.13;44.78;101552.56;5028728;28;20034;-67
2023/06/05 08:37:38;;;;;;;2.05;0.55;;;;;;;26.21;45.75;101555.94;5030634;28;20777;-68
2023/06/05 08:40:10;;;;;;;0.88;0.22;;;;;;;26.29;45.54;101552.50;5032874;28;20120;-68
2023/06/05 08:42:39;;;;;;;0.57;0.40;;;;;;;26.53;44.38;101550.97;5024789;28;20109;-66
2023/06/05 08:45:07;;;;;;;0.68;0.40;;;;;;;26.57;44.95;101559.94;5024647;28;20049;-67
2023/06/05 08:47:35;;;;;;;0.90;0.50;;;;;;;26.65;45.31;101554.97;5028743;28;20041;-67
2023/06/05 08:50:06;;;;;;;1.75;0.50;;;;;;;26.68;45.37;101560.38;5036945;28;20070;-67
2023/06/05 08:52:38;;;;;;;1.30;1.17;;;;;;;26.98;45.41;101556.28;5031100;28;20467;-67
2023/06/05 08:55:05;;;;;;;0.95;0.63;;;;;;;26.78;44.36;101551.00;5030104;28;20033;-71
2023/06/05 08:57:39;;;;;;;0.60;0.40;;;;;;;26.85;44.21;101552.00;5036405;28;20025;-69
2023/06/05 09:00:15;;;;;;;0.77;0.47;;;;;;;26.96;44.77;101553.19;5035132;28;20036;-70
2023/06/05 09:02:46;;;;;;;0.98;0.57;;;;;;;27.15;45.12;101543.84;5041652;28;20120;-68
2023/06/05 09:05:16;;;;;;;1.88;0.40;;;;;;;27.43;44.14;101540.13;5033443;28;20018;-68
2023/06/05 09:07:41;;;;;;;1.00;0.43;;;;;;;27.49;43.08;101560.47;5019550;28;20029;-66
2023/06/05 09:10:22;;;;;;;0.50;0.50;;;;;;;27.47;43.64;101548.28;5042453;28;20038;-67
2023/06/05 09:13:02;;;;;;;0.30;0.30;;;;;;;27.73;43.21;101543.44;5030410;28;20064;-67
2023/06/05 09:15:32;;;;;;;1.00;0.57;;;;;;;27.88;42.30;101536.91;5023438;28;20539;-67
2023/06/05 09:18:05;;;;;;;1.17;0.70;;;;;;;27.91;42.61;101540.78;5003519;28;20029;-67
2023/06/05 09:20:34;;;;;;;0.30;0.30;;;;;;;28.04;42.38;101539.53;5028255;28;20091;-67
2023/06/05 09:23:01;;;;;;;1.45;0.32;;;;;;;28.06;42.43;101544.59;5032864;28;20029;-67
2023/06/05 09:25:32;;;;;;;0.38;0.28;;;;;;;28.17;42.19;101534.66;5024313;28;20113;-66
2023/06/05 09:28:15;;;;;;;0.55;0.35;;;;;;;28.42;42.78;101540.00;5029754;28;20040;-67
2023/06/05 09:30:55;;;;;;;0.52;0.30;;;;;;;28.49;42.93;101542.50;5031641;28;20045;-66
2023/06/05 09:33:20;;;;;;;1.40;0.63;;;;;;;28.28;40.89;101537.03;5032656;28;20033;-66
2023/06/05 09:35:48;;;;;;;0.93;0.50;;;;;;;28.42;41.12;101536.47;5026343;28;20034;-67
2023/06/05 09:38:26;;;;;;;0.90;0.50;;;;;;;28.15;40.78;101528.78;5031341;28;20113;-68
2023/06/05 09:40:52;;;;;;;0.38;0.30;;;;;;;27.96;40.94;101529.13;5033621;28;20022;-67
2023/06/05 09:43:24;;;;;;;1.33;0.65;;;;;;;28.11;40.80;101530.94;5029517;28;20504;-67
2023/06/05 09:45:50;;;;;;;0.65;0.30;;;;;;;28.28;40.38;101537.78;5026083;28;20120;-70
2023/06/05 09:48:16;;;;;;;1.52;0.70;;;;;;;28.49;39.03;101533.41;5026249;28;20122;-67
2023/06/05 09:50:42;;;;;;;0.40;0.40;;;;;;;28.59;39.19;101523.91;5034457;28;20725;-67
2023/06/05 09:53:14;;;;;;;0.50;0.32;;;;;;;28.62;41.13;101525.78;5034124;28;20036;-66
2023/06/05 09:55:40;;;;;;;1.65;0.40;;;;;;;28.86;41.02;101534.34;5032055;28;20155;-66
2023/06/05 09:58:11;;;;;;;0.50;0.30;;;;;;;29.16;39.61;101528.69;5030471;28;20502;-66
2023/06/05 10:00:39;;;;;;;1.02;0.40;;;;;;;29.35;38.37;101535.03;5019325;28;20030;-67
2023/06/05 10:03:10;;;;;;;0.82;0.60;;;;;;;29.60;39.36;101523.59;5031956;28;20042;-69
2023/06/05 10:05:40;;;;;;;1.15;0.55;;;;;;;29.93;38.45;101534.84;5035810;28;20044;-67
2023/06/05 10:08:06;;;;;;;0.30;0.30;;;;;;;29.98;38.67;101532.22;5037993;28;20088;-66
2023/06/05 10:10:33;;;;;;;0.70;0.35;;;;;;;29.99;38.26;101524.63;5031364;28;20049;-67
2023/06/05 10:13:01;;;;;;;0.35;0.35;;;;;;;30.00;38.81;101521.38;5030513;28;20033;-66
2023/06/05 10:15:27;;;;;;;0.47;0.40;;;;;;;30.16;38.25;101528.59;5041254;28;20044;-66
2023/06/05 10:17:56;;;;;;;0.65;0.40;;;;;;;30.03;36.58;101516.91;5029476;28;20037;-67
2023/06/05 10:20:21;;;;;;;0.90;0.45;;;;;;;29.65;37.19;101525.75;5031169;28;20160;-66
2023/06/05 10:22:49;;;;;;;0.45;0.28;;;;;;;29.70;37.05;101522.34;5025859;28;20116;-68
2023/06/05 10:25:18;;;;;;;0.70;0.38;;;;;;;29.81;37.44;101511.53;5025037;28;20490;-67
2023/06/05 10:27:50;;;;;;;0.20;0.20;;;;;;;30.02;37.80;101516.13;5036811;28;20033;-67
2023/06/05 10:30:39;;;;;;;0.65;0.35;;;;;;;30.12;37.00;101509.31;5030894;28;20060;-67
2023/06/05 10:33:34;;;;;;;2.03;0.30;;;;;;;30.01;36.51;101513.81;5023756;28;20041;-66
2023/06/05 10:36:32;;;;;;;0.60;0.32;;;;;;;30.15;36.19;101513.16;5020219;28;20041;-68
2023/06/05 10:39:00;;;;;;;0.57;0.30;;;;;;;30.14;36.81;101498.47;5029360;28;20200;-66
2023/06/05 10:41:25;;;;;;;0.40;0.40;;;;;;;30.51;36.61;101510.25;5039694;28;20131;-67
2023/06/05 10:43:55;;;;;;;0.57;0.30;;;;;;;30.37;35.37;101507.38;5031250;28;20101;-70
2023/06/05 10:46:27;;;;;;;0.60;0.43;;;;;;;30.52;36.25;101502.69;5025569;28;20053;-66
2023/06/05 10:49:07;;;;;;;1.10;0.40;;;;;;;30.61;35.33;101505.41;5040829;28;20577;-66
2023/06/05 10:51:37;;;;;;;0.90;0.40;;;;;;;30.87;36.31;101507.28;5022732;28;20029;-67
2023/06/05 10:54:07;;;;;;;0.28;0.20;;;;;;;31.17;35.81;101508.13;5045722;28;20029;-67
2023/06/05 10:59:20;;;;;;;0.73;0.43;;;;;;;31.13;34.33;101498.44;5038885;28;20557;-67
2023/06/05 11:02:14;;;;;;;0.63;0.40;;;;;;;30.87;35.51;101498.16;5033977;28;20035;-66
2023/06/05 11:04:46;;;;;;;0.30;0.30;;;;;;;30.72;34.75;101492.50;5022140;28;20034;-66
2023/06/05 11:07:28;;;;;;;0.17;0.17;;;;;;;30.26;35.26;101497.50;5028718;28;20502;-67
2023/06/05 11:10:21;;;;;;;0.63;0.43;;;;;;;29.73;35.03;101482.56;5029545;28;20379;-66
2023/06/05 11:12:46;;;;;;;0.90;0.43;;;;;;;29.47;36.33;101481.34;5017566;28;20068;-68
2023/06/05 11:15:14;;;;;;;1.38;0.30;;;;;;;29.26;35.64;101485.06;5018806;28;20064;-72
2023/06/05 11:17:41;;;;;;;0.77;0.50;;;;;;;29.12;35.84;101471.75;5035453;28;20044;-68
2023/06/05 11:20:26;;;;;;;0.50;0.43;;;;;;;28.93;36.55;101471.00;5036235;28;20146;-66
2023/06/05 11:22:52;;;;;;;0.43;0.40;;;;;;;29.15;36.20;101470.88;5013498;28;20045;-67
2023/06/05 11:25:18;;;;;;;0.95;0.30;;;;;;;29.39;36.11;101477.31;5025143;28;20025;-67
2023/06/05 11:27:52;;;;;;;0.80;0.30;;;;;;;29.24;36.50;101468.88;5029445;28;20060;-68
2023/06/05 11:30:24;;;;;;;0.70;0.63;;;;;;;29.52;35.76;101472.38;5030003;28;20421;-69
2023/06/05 11:32:52;;;;;;;0.28;0.28;;;;;;;29.28;35.92;101460.38;5015054;28;20509;-69
2023/06/05 11:35:21;;;;;;;0.77;0.50;;;;;;;29.67;36.17;101462.19;5019681;28;20083;-69